Time;durP1;ratioP1;P1;durP2;ratioP2;P2;SDS_P1;SDS_P2;PMS_P1;PMS_P2;Temp;Humidity;BMP_temperature;BMP_pressure;BME280_temperature;BME280_humidity;BME280_pressure;Samples;Min_cycle;Max_cycle;Signal;HPM_P1;HPM_P2
2021/12/25 00:01:54;;;;;;;25.15;15.93;;;333.10;1638.40;;;;;;5092976;28;20019;-62
2021/12/25 00:04:21;;;;;;;20.48;12.65;;;333.10;1612.80;;;;;;5093831;28;20039;-60
2021/12/25 00:06:47;;;;;;;17.77;11.23;;;333.10;1612.80;;;;;;5094087;28;20115;-59
2021/12/25 00:09:13;;;;;;;18.67;10.82;;;333.20;1612.80;;;;;;5094348;28;20124;-60
2021/12/25 00:11:38;;;;;;;14.30;9.07;;;333.10;1612.80;;;;;;5092442;28;20384;-60
2021/12/25 00:14:10;;;;;;;15.82;8.93;;;333.10;1612.80;;;;;;5094057;28;20517;-61
2021/12/25 00:16:37;;;;;;;17.15;9.70;;;333.10;1612.80;;;;;;5093942;28;20359;-62
2021/12/25 00:19:03;;;;;;;17.73;7.70;;;333.00;1638.40;;;;;;5093979;28;20024;-65
2021/12/25 00:21:29;;;;;;;16.35;9.30;;;333.10;1638.40;;;;;;5093538;28;20027;-64
2021/12/25 00:23:55;;;;;;;22.08;11.32;;;333.00;1638.40;;;;;;5093103;28;20111;-60
2021/12/25 00:26:47;;;;;;;21.45;14.77;;;333.10;1638.40;;;;;;5093117;28;20032;-60
2021/12/25 00:32:40;;;;;;;18.67;11.55;;;333.00;1638.40;;;;;;5089937;28;20073;-59
2021/12/25 00:34:41;;;;;;;16.75;10.95;;;333.00;1638.40;;;;;;5092199;28;20036;-63
2021/12/25 00:37:08;;;;;;;14.63;8.88;;;332.90;1638.40;;;;;;5093198;28;20020;-59
2021/12/25 00:39:34;;;;;;;17.40;8.38;;;333.00;1638.40;;;;;;5093471;28;20073;-59
2021/12/25 00:42:01;;;;;;;15.82;8.85;;;332.90;1638.40;;;;;;5093052;28;20021;-60
2021/12/25 00:44:28;;;;;;;16.52;8.82;;;333.00;1638.40;;;;;;5092989;28;20024;-64
2021/12/25 00:46:54;;;;;;;19.40;11.20;;;333.00;1638.40;;;;;;5093179;28;20024;-61
2021/12/25 00:49:20;;;;;;;20.80;13.18;;;332.90;1638.40;;;;;;5093109;28;20039;-63
2021/12/25 00:51:46;;;;;;;22.02;11.48;;;333.00;1638.40;;;;;;5093067;28;20694;-60
2021/12/25 00:54:13;;;;;;;17.35;10.63;;;332.90;1638.40;;;;;;5092865;28;20023;-61
2021/12/25 00:56:39;;;;;;;14.07;8.80;;;333.00;1638.40;;;;;;5097083;28;20024;-60
2021/12/25 00:59:05;;;;;;;16.77;9.50;;;333.00;1664.00;;;;;;5096476;28;20496;-63
2021/12/25 01:01:31;;;;;;;16.48;9.38;;;333.00;1638.40;;;;;;5097014;28;20032;-62
2021/12/25 01:03:56;;;;;;;17.75;8.98;;;333.00;1638.40;;;;;;5096217;28;20059;-60
2021/12/25 01:06:22;;;;;;;13.07;7.88;;;332.90;1664.00;;;;;;5096519;28;20495;-60
2021/12/25 01:08:48;;;;;;;15.40;7.85;;;332.90;1638.40;;;;;;5096322;28;20073;-58
2021/12/25 01:11:15;;;;;;;14.23;8.05;;;332.90;1638.40;;;;;;5096487;28;20039;-62
2021/12/25 01:13:51;;;;;;;16.45;8.82;;;333.00;1638.40;;;;;;5096767;28;20377;-59
2021/12/25 01:32:48;;;;;;;16.88;5.65;;;333.00;1612.80;;;;;;5054512;28;20033;-64
2021/12/25 01:48:34;;;;;;;13.82;5.53;;;333.10;1612.80;;;;;;5054388;28;20074;-62
2021/12/25 01:51:00;;;;;;;11.40;4.70;;;333.10;1612.80;;;;;;5054146;28;20033;-62
2021/12/25 01:53:25;;;;;;;17.30;5.40;;;333.10;1612.80;;;;;;5054459;28;20029;-63
2021/12/25 01:55:51;;;;;;;17.65;5.13;;;333.10;1612.80;;;;;;5054155;28;20029;-59
2021/12/25 01:58:17;;;;;;;14.77;4.43;;;333.10;1612.80;;;;;;5087693;28;20362;-60
2021/12/25 02:00:46;;;;;;;16.20;5.10;;;333.10;1612.80;;;;;;5096635;28;20047;-60
2021/12/25 02:03:15;;;;;;;13.27;6.35;;;333.20;1612.80;;;;;;5096172;28;20118;-61
2021/12/25 02:05:41;;;;;;;13.23;5.40;;;333.10;1612.80;;;;;;5095400;28;20051;-65
2021/12/25 02:08:07;;;;;;;11.18;6.20;;;333.20;1612.80;;;;;;5096494;28;20065;-59
2021/12/25 02:10:33;;;;;;;16.77;7.78;;;333.20;1612.80;;;;;;5094808;28;20027;-65
2021/12/25 02:13:01;;;;;;;18.80;8.07;;;333.10;1612.80;;;;;;5096093;28;20024;-63
2021/12/25 02:15:28;;;;;;;14.00;6.38;;;333.20;1612.80;;;;;;5096029;28;20028;-65
2021/12/25 02:21:08;;;;;;;11.70;5.32;;;333.20;1612.80;;;;;;5096237;28;20028;-65
2021/12/25 02:23:31;;;;;;;12.30;5.68;;;333.10;1612.80;;;;;;5095832;28;20081;-64
2021/12/25 02:25:57;;;;;;;9.77;4.78;;;333.20;1612.80;;;;;;5095635;28;20028;-59
2021/12/25 02:28:24;;;;;;;12.38;4.72;;;333.20;1612.80;;;;;;5094472;28;20130;-65
2021/12/25 02:30:53;;;;;;;21.73;4.70;;;333.20;1612.80;;;;;;5095849;28;20028;-65
2021/12/25 02:33:19;;;;;;;13.57;4.60;;;333.20;1612.80;;;;;;5095920;28;20101;-60
2021/12/25 02:35:45;;;;;;;14.05;4.57;;;333.20;1612.80;;;;;;5095823;28;20034;-65
2021/12/25 02:38:12;;;;;;;12.43;5.40;;;333.20;1612.80;;;;;;5095052;28;20069;-62
2021/12/25 02:40:38;;;;;;;19.85;5.68;;;333.20;1612.80;;;;;;5095411;28;20048;-66
2021/12/25 02:43:04;;;;;;;20.45;9.68;;;333.10;1612.80;;;;;;5095359;28;20020;-66
2021/12/25 02:45:30;;;;;;;25.63;10.82;;;333.20;1638.40;;;;;;5095523;28;20036;-64
2021/12/25 02:47:57;;;;;;;20.20;10.23;;;333.10;1612.80;;;;;;5095567;28;20474;-65
2021/12/25 02:50:32;;;;;;;14.60;8.27;;;333.10;1638.40;;;;;;5095526;28;20427;-64
2021/12/25 02:53:01;;;;;;;12.75;8.10;;;333.10;1638.40;;;;;;5095478;28;20034;-65
2021/12/25 02:55:28;;;;;;;16.20;8.70;;;333.00;1638.40;;;;;;5095631;28;20036;-62
2021/12/25 02:57:54;;;;;;;13.90;8.82;;;333.00;1664.00;;;;;;5095419;28;20020;-60
2021/12/25 03:00:29;;;;;;;20.63;9.60;;;333.10;1638.40;;;;;;5093853;28;20051;-65
2021/12/25 03:02:56;;;;;;;17.67;9.93;;;333.00;1638.40;;;;;;5095071;28;20490;-60
2021/12/25 03:05:22;;;;;;;17.15;10.27;;;333.00;1638.40;;;;;;5095063;28;20485;-59
2021/12/25 03:07:48;;;;;;;18.88;11.35;;;333.00;1664.00;;;;;;5095227;28;20434;-64
2021/12/25 03:10:16;;;;;;;19.08;10.82;;;332.90;1664.00;;;;;;5095127;28;20064;-63
2021/12/25 03:15:20;;;;;;;15.20;8.85;;;332.80;1664.00;;;;;;5095096;28;20454;-60
2021/12/25 03:17:46;;;;;;;13.95;8.50;;;332.90;1664.00;;;;;;5094791;28;20118;-65
2021/12/25 03:20:12;;;;;;;17.55;8.98;;;332.90;1664.00;;;;;;5094943;28;20043;-60
2021/12/25 03:22:39;;;;;;;11.82;7.15;;;332.90;1664.00;;;;;;5094719;28;20024;-60
2021/12/25 03:25:09;;;;;;;11.30;7.57;;;333.00;1664.00;;;;;;5094805;28;20089;-60
2021/12/25 03:27:41;;;;;;;17.05;9.23;;;332.80;1664.00;;;;;;5094772;28;20028;-60
2021/12/25 03:30:09;;;;;;;17.08;9.40;;;332.80;1664.00;;;;;;5095109;28;20473;-60
2021/12/25 03:32:35;;;;;;;16.92;10.15;;;332.80;1664.00;;;;;;5094358;28;20038;-64
2021/12/25 03:35:01;;;;;;;22.45;12.45;;;332.80;1664.00;;;;;;5094673;28;20024;-64
2021/12/25 03:37:27;;;;;;;22.98;13.10;;;332.90;1664.00;;;;;;5094449;28;20059;-64
2021/12/25 03:39:53;;;;;;;24.38;12.60;;;332.80;1664.00;;;;;;5094732;28;20039;-60
2021/12/25 03:42:18;;;;;;;19.10;11.35;;;332.90;1664.00;;;;;;5095070;28;20016;-64
2021/12/25 03:44:45;;;;;;;38.22;15.45;;;332.90;1664.00;;;;;;5094032;28;20061;-63
2021/12/25 03:47:23;;;;;;;21.73;11.85;;;332.90;1638.40;;;;;;5094499;28;20028;-61
2021/12/25 03:58:23;;;;;;;19.13;8.32;;;333.00;1638.40;;;;;;5051952;28;20541;-59
2021/12/25 04:00:50;;;;;;;11.32;7.15;;;332.80;1664.00;;;;;;5051711;28;20094;-62
2021/12/25 04:03:27;;;;;;;15.38;6.65;;;332.80;1664.00;;;;;;5051703;28;20091;-62
2021/12/25 04:05:53;;;;;;;9.35;6.38;;;308.10;1638.40;;;;;;5051590;28;20171;-60
2021/12/25 04:08:23;;;;;;;15.73;6.75;;;308.10;1664.00;;;;;;5052086;28;20112;-62
2021/12/25 04:10:53;;;;;;;16.50;7.38;;;308.10;1664.00;;;;;;5051583;28;20037;-60
2021/12/25 04:13:19;;;;;;;17.13;7.28;;;308.00;1664.00;;;;;;5051377;28;20105;-60
2021/12/25 04:15:46;;;;;;;12.10;6.85;;;308.10;1664.00;;;;;;5051668;28;20068;-66
2021/12/25 04:18:11;;;;;;;15.52;7.40;;;308.00;1664.00;;;;;;5051659;28;20434;-60
2021/12/25 04:20:37;;;;;;;11.48;6.60;;;308.00;1664.00;;;;;;5051584;28;20033;-65
2021/12/25 04:23:08;;;;;;;16.15;8.60;;;308.00;1664.00;;;;;;5051743;28;20468;-64
2021/12/25 04:25:36;;;;;;;12.60;6.28;;;308.00;1664.00;;;;;;5051533;28;20037;-63
2021/12/25 04:31:34;;;;;;;13.10;5.43;;;307.90;1664.00;;;;;;5011784;28;20574;-62
2021/12/25 05:04:31;;;;;;;11.82;5.80;;;307.60;1715.20;;;;;;4933966;29;20235;-65
2021/12/25 05:06:57;;;;;;;14.52;6.07;;;307.70;1689.60;;;;;;4939828;28;20189;-63
2021/12/25 05:09:23;;;;;;;9.32;5.93;;;307.70;1689.60;;;;;;4991396;28;20439;-61
2021/12/25 05:11:49;;;;;;;11.07;5.30;;;307.60;1715.20;;;;;;4991468;28;20039;-70
2021/12/25 05:14:14;;;;;;;8.45;5.50;;;307.60;1689.60;;;;;;4990974;28;20029;-71
2021/12/25 05:16:41;;;;;;;14.13;7.68;;;307.60;1715.20;;;;;;4991213;28;20029;-70
2021/12/25 05:19:08;;;;;;;13.60;6.90;;;307.60;1715.20;;;;;;4991628;28;20034;-64
2021/12/25 05:21:34;;;;;;;12.20;6.93;;;307.60;1689.60;;;;;;4991826;28;20027;-61
2021/12/25 05:24:00;;;;;;;9.57;7.10;;;307.60;1715.20;;;;;;4991814;28;20077;-64
2021/12/25 05:26:26;;;;;;;15.48;8.10;;;307.60;1715.20;;;;;;5017428;28;20117;-61
2021/12/25 05:29:00;;;;;;;13.63;7.57;;;307.60;1715.20;;;;;;5030985;28;20033;-61
2021/12/25 05:31:28;;;;;;;25.63;7.88;;;307.60;1715.20;;;;;;5030962;28;20037;-60
2021/12/25 05:33:54;;;;;;;18.75;7.28;;;307.60;1740.80;;;;;;5031010;28;20021;-60
2021/12/25 05:36:20;;;;;;;23.33;7.78;;;307.60;1740.80;;;;;;5030800;28;20037;-60
2021/12/25 05:38:46;;;;;;;15.13;7.72;;;307.70;1715.20;;;;;;5074613;28;20063;-60
2021/12/25 05:41:12;;;;;;;16.65;7.30;;;307.60;1740.80;;;;;;5095773;28;20457;-60
2021/12/25 05:43:38;;;;;;;10.50;6.32;;;307.70;1740.80;;;;;;5096662;28;20020;-59
2021/12/25 05:46:04;;;;;;;13.20;6.10;;;307.60;1715.20;;;;;;5096514;28;20089;-60
2021/12/25 05:48:35;;;;;;;15.88;8.40;;;307.70;1715.20;;;;;;5096694;28;20099;-60
2021/12/25 05:51:02;;;;;;;40.22;19.23;;;307.70;1715.20;;;;;;5096725;28;20031;-60
2021/12/25 05:53:28;;;;;;;29.25;14.70;;;307.70;1740.80;;;;;;5096698;28;20012;-60
2021/12/25 05:55:53;;;;;;;19.98;12.00;;;307.80;1740.80;;;;;;5096333;28;20362;-60
2021/12/25 05:58:19;;;;;;;25.27;12.23;;;307.70;1740.80;;;;;;5095923;28;20024;-59
2021/12/25 06:00:45;;;;;;;20.95;11.52;;;307.80;1740.80;;;;;;5096421;28;20023;-60
2021/12/25 06:03:11;;;;;;;21.65;12.02;;;307.80;1740.80;;;;;;5094799;28;20040;-60
2021/12/25 06:05:37;;;;;;;24.23;14.02;;;307.90;1740.80;;;;;;5096428;28;20110;-60
2021/12/25 06:08:03;;;;;;;44.05;20.33;;;307.90;1740.80;;;;;;5096578;28;20050;-60
2021/12/25 06:10:29;;;;;;;45.45;20.85;;;307.90;1740.80;;;;;;5095747;28;20028;-60
2021/12/25 06:12:58;;;;;;;33.70;18.08;;;308.00;1740.80;;;;;;5096307;28;20043;-60
2021/12/25 06:15:24;;;;;;;37.22;17.17;;;308.00;1740.80;;;;;;5095910;28;20111;-60
2021/12/25 06:17:50;;;;;;;30.55;15.20;;;308.00;1740.80;;;;;;5095897;28;20024;-60
2021/12/25 06:20:16;;;;;;;26.35;12.80;;;308.10;1740.80;;;;;;5094719;28;20047;-60
2021/12/25 06:22:42;;;;;;;31.90;12.05;;;308.10;1766.40;;;;;;5096034;28;20024;-60
2021/12/25 06:25:09;;;;;;;34.92;16.00;;;308.10;1766.40;;;;;;5096487;28;20103;-60
2021/12/25 06:27:35;;;;;;;79.93;30.65;;;332.80;1792.00;;;;;;5095986;28;20095;-63
2021/12/25 06:30:02;;;;;;;66.95;30.55;;;333.00;1894.40;;;;;;5095318;28;20028;-63
2021/12/25 06:32:28;;;;;;;51.28;23.85;;;333.20;1868.80;;;;;;5096065;28;20044;-60
2021/12/25 06:34:53;;;;;;;22.85;9.07;;;333.40;1843.20;;;;;;5094483;28;20132;-60
2021/12/25 06:37:19;;;;;;;17.75;6.95;;;333.50;1817.60;;;;;;5094496;28;20115;-61
2021/12/25 06:39:47;;;;;;;22.17;6.45;;;333.40;1817.60;;;;;;5095624;28;20034;-66
2021/12/25 06:42:13;;;;;;;14.40;4.65;;;333.40;1817.60;;;;;;5095491;28;20484;-65
2021/12/25 06:44:39;;;;;;;20.02;4.50;;;333.40;1817.60;;;;;;5095327;28;20111;-62
2021/12/25 06:47:05;;;;;;;18.63;5.53;;;333.40;1817.60;;;;;;5095632;28;20458;-64
2021/12/25 06:49:31;;;;;;;29.05;11.07;;;333.40;1817.60;;;;;;5093743;28;20066;-66
2021/12/25 06:51:56;;;;;;;26.10;11.40;;;333.30;1843.20;;;;;;5094985;28;20061;-74
2021/12/25 06:54:22;;;;;;;34.47;13.25;;;333.30;1817.60;;;;;;5095427;28;20027;-65
2021/12/25 06:56:48;;;;;;;202.38;81.65;;;333.30;1817.60;;;;;;5095411;28;20027;-67
2021/12/25 06:59:16;;;;;;;376.48;127.30;;;333.30;1843.20;;;;;;5094898;28;20052;-60
2021/12/25 07:01:42;;;;;;;584.03;222.13;;;333.30;1843.20;;;;;;5095200;28;20453;-60
2021/12/25 07:04:09;;;;;;;275.48;113.60;;;333.20;1817.60;;;;;;5094786;28;20514;-60
2021/12/25 07:06:36;;;;;;;65.97;37.33;;;333.20;1843.20;;;;;;5095213;28;20028;-60
2021/12/25 07:09:07;;;;;;;35.80;21.33;;;333.20;1843.20;;;;;;5095200;28;20099;-60
2021/12/25 07:11:34;;;;;;;19.92;11.98;;;333.20;1843.20;;;;;;5095166;28;20031;-60
2021/12/25 07:14:02;;;;;;;19.45;10.32;;;333.10;1843.20;;;;;;5094919;28;20035;-60
2021/12/25 07:16:28;;;;;;;13.23;7.75;;;333.10;1843.20;;;;;;5095110;28;20028;-60
2021/12/25 07:18:54;;;;;;;13.70;8.07;;;333.10;1843.20;;;;;;5094934;28;20027;-60
2021/12/25 07:21:20;;;;;;;18.58;8.63;;;333.00;1868.80;;;;;;5095218;28;20031;-59
2021/12/25 07:23:45;;;;;;;14.75;10.45;;;333.00;1868.80;;;;;;5094918;28;20035;-60
2021/12/25 07:26:12;;;;;;;33.95;22.08;;;333.00;1894.40;;;;;;5095150;28;20506;-60
2021/12/25 07:28:37;;;;;;;47.85;27.48;;;333.00;1894.40;;;;;;5094746;28;20044;-60
2021/12/25 07:31:04;;;;;;;78.60;38.05;;;333.00;1894.40;;;;;;5094684;28;20074;-60
2021/12/25 07:33:31;;;;;;;54.28;31.30;;;333.00;1894.40;;;;;;5094160;28;20432;-60
2021/12/25 07:35:58;;;;;;;28.35;15.68;;;333.00;1894.40;;;;;;5094784;28;20056;-64
2021/12/25 07:38:24;;;;;;;19.85;10.98;;;333.00;1920.00;;;;;;5093288;28;20054;-65
2021/12/25 07:40:50;;;;;;;18.17;10.40;;;332.90;1920.00;;;;;;5094641;28;20020;-65
2021/12/25 07:43:17;;;;;;;19.08;11.50;;;332.90;1920.00;;;;;;5094521;28;20123;-65
2021/12/25 07:45:48;;;;;;;27.92;12.98;;;333.00;1945.60;;;;;;5094021;28;20043;-65
2021/12/25 07:48:18;;;;;;;260.50;89.05;;;332.90;1945.60;;;;;;5094492;28;20012;-65
2021/12/25 07:50:44;;;;;;;277.40;103.03;;;333.00;1945.60;;;;;;5094489;28;20028;-66
2021/12/25 07:53:10;;;;;;;108.22;46.25;;;333.00;1945.60;;;;;;5094372;28;20039;-65
2021/12/25 07:55:36;;;;;;;64.18;29.60;;;333.00;1945.60;;;;;;5094462;28;20480;-68
2021/12/25 07:58:02;;;;;;;47.08;23.83;;;333.00;1945.60;;;;;;5094662;28;20024;-66
2021/12/25 08:00:29;;;;;;;26.45;14.77;;;333.00;1945.60;;;;;;5094095;28;20027;-67
2021/12/25 08:02:55;;;;;;;37.50;19.52;;;333.00;1945.60;;;;;;5093153;28;20064;-69
2021/12/25 08:05:21;;;;;;;17.40;8.85;;;333.10;2022.40;;;;;;5093885;28;20120;-69
2021/12/25 08:07:47;;;;;;;20.17;8.15;;;333.10;1945.60;;;;;;5094156;28;20599;-68
2021/12/25 08:10:16;;;;;;;11.10;6.95;;;333.10;1945.60;;;;;;5094188;28;20038;-68
2021/12/25 08:12:47;;;;;;;12.43;7.45;;;333.10;1945.60;;;;;;5094240;28;20032;-67
2021/12/25 08:15:14;;;;;;;11.23;6.85;;;333.10;1945.60;;;;;;5092549;28;20055;-68
2021/12/25 08:17:40;;;;;;;8.38;5.25;;;333.10;1945.60;;;;;;5094153;28;20020;-70
2021/12/25 08:20:07;;;;;;;12.43;5.80;;;333.20;1945.60;;;;;;5093738;28;20377;-67
2021/12/25 08:22:34;;;;;;;9.40;5.10;;;333.20;1945.60;;;;;;5093928;28;20032;-67
2021/12/25 08:24:59;;;;;;;12.48;6.80;;;333.20;1945.60;;;;;;5093891;28;20024;-69
2021/12/25 08:27:25;;;;;;;14.23;8.35;;;333.30;1920.00;;;;;;5093995;28;20459;-68
2021/12/25 08:29:51;;;;;;;12.45;7.53;;;333.30;1920.00;;;;;;5092376;28;20059;-68
2021/12/25 08:32:17;;;;;;;11.40;7.05;;;333.30;1920.00;;;;;;5091722;28;20035;-69
2021/12/25 08:34:43;;;;;;;16.30;8.20;;;333.30;1920.00;;;;;;5092033;28;20088;-68
2021/12/25 08:37:10;;;;;;;13.30;6.90;;;333.30;1920.00;;;;;;5093580;28;20024;-68
2021/12/25 08:39:36;;;;;;;13.10;7.68;;;333.30;1945.60;;;;;;5093506;28;20032;-62
2021/12/25 08:42:04;;;;;;;18.60;8.88;;;333.30;1920.00;;;;;;5093723;28;20433;-63
2021/12/25 08:44:38;;;;;;;20.10;9.05;;;333.30;1945.60;;;;;;5093667;28;20035;-65
2021/12/25 08:47:07;;;;;;;57.95;13.25;;;333.30;1945.60;;;;;;5093836;28;20028;-63
2021/12/25 08:49:34;;;;;;;33.30;13.43;;;333.30;1945.60;;;;;;5093619;28;20024;-62
2021/12/25 08:52:07;;;;;;;28.70;14.93;;;333.30;1945.60;;;;;;5093449;28;20024;-62
2021/12/25 08:54:33;;;;;;;20.35;12.60;;;333.30;1945.60;;;;;;5093699;28;20050;-62
2021/12/25 08:56:59;;;;;;;20.45;12.00;;;333.30;1945.60;;;;;;5093670;28;20028;-62
2021/12/25 08:59:26;;;;;;;23.77;11.95;;;333.30;1945.60;;;;;;5093148;28;20519;-62
2021/12/25 09:01:52;;;;;;;24.58;13.38;;;333.40;1920.00;;;;;;5093425;28;20448;-62
2021/12/25 09:04:18;;;;;;;28.30;14.63;;;333.30;1945.60;;;;;;5091954;28;20119;-62
2021/12/25 09:06:44;;;;;;;27.98;15.55;;;333.40;1945.60;;;;;;5093127;28;20036;-61
2021/12/25 09:09:10;;;;;;;31.92;16.83;;;333.40;1945.60;;;;;;5093284;28;20020;-62
2021/12/25 09:11:37;;;;;;;49.47;26.65;;;333.40;1945.60;;;;;;5093447;28;20032;-61
2021/12/25 09:14:04;;;;;;;36.00;20.08;;;333.40;1945.60;;;;;;5092193;28;20028;-62
2021/12/25 09:16:30;;;;;;;34.58;19.63;;;333.40;1945.60;;;;;;5097087;28;20032;-61
2021/12/25 09:18:55;;;;;;;35.63;18.92;;;333.40;1971.20;;;;;;5095830;28;20036;-62
2021/12/25 09:21:21;;;;;;;30.02;16.80;;;333.40;1971.20;;;;;;5095050;28;20093;-62
2021/12/25 09:23:47;;;;;;;24.80;13.05;;;333.40;1996.80;;;;;;5097127;28;20377;-63
2021/12/25 09:26:14;;;;;;;19.13;11.70;;;333.50;1996.80;;;;;;5096971;28;20415;-62
2021/12/25 09:28:40;;;;;;;18.50;10.57;;;333.50;1996.80;;;;;;5096835;28;20098;-68
2021/12/25 09:31:06;;;;;;;18.90;11.50;;;333.50;1996.80;;;;;;5097143;28;20024;-64
2021/12/25 09:33:33;;;;;;;29.05;11.65;;;333.50;1996.80;;;;;;5096621;28;20491;-65
2021/12/25 09:36:02;;;;;;;39.33;22.60;;;333.60;1996.80;;;;;;5096950;28;20471;-64
2021/12/25 09:38:28;;;;;;;50.95;26.80;;;333.60;1996.80;;;;;;5096706;28;20099;-63
2021/12/25 09:40:58;;;;;;;37.17;18.40;;;333.70;1996.80;;;;;;5096720;28;20077;-68
2021/12/25 09:43:25;;;;;;;24.17;15.55;;;333.70;1971.20;;;;;;5096991;28;20043;-65
2021/12/25 09:45:51;;;;;;;23.42;10.70;;;333.70;1971.20;;;;;;5096527;28;20035;-64
2021/12/25 09:48:17;;;;;;;33.92;17.63;;;333.70;1971.20;;;;;;5096547;28;20020;-70
2021/12/25 09:50:43;;;;;;;46.72;32.03;;;358.40;1996.80;;;;;;5096080;28;20377;-62
2021/12/25 09:53:12;;;;;;;35.75;20.92;;;358.60;2048.00;;;;;;5096854;28;20028;-65
2021/12/25 09:55:38;;;;;;;67.93;34.25;;;358.60;1945.60;;;;;;5096460;28;20028;-63
2021/12/25 09:58:05;;;;;;;141.05;78.47;;;358.60;1945.60;;;;;;5096569;28;20059;-62
2021/12/25 10:00:33;;;;;;;130.60;71.35;;;358.70;1920.00;;;;;;5094733;28;20538;-63
2021/12/25 10:02:58;;;;;;;89.70;51.95;;;358.70;1945.60;;;;;;5096015;28;20063;-63
2021/12/25 10:05:31;;;;;;;72.65;46.78;;;358.70;1945.60;;;;;;5096269;28;20036;-63
2021/12/25 10:08:13;;;;;;;48.22;34.10;;;358.80;1945.60;;;;;;5096164;28;20462;-64
2021/12/25 10:10:44;;;;;;;52.15;32.72;;;358.80;1920.00;;;;;;5096476;28;20047;-64
2021/12/25 10:13:21;;;;;;;69.65;39.35;;;358.80;1945.60;;;;;;5096240;28;20024;-63
2021/12/25 10:15:48;;;;;;;210.13;77.30;;;358.80;1945.60;;;;;;5096221;28;20093;-63
2021/12/25 10:18:14;;;;;;;104.50;46.78;;;358.70;1945.60;;;;;;5094878;28;20032;-62
2021/12/25 10:20:39;;;;;;;61.53;35.10;;;358.80;1971.20;;;;;;5095229;28;20024;-62
2021/12/25 10:23:15;;;;;;;36.05;21.50;;;358.80;1971.20;;;;;;5094065;28;20069;-64
2021/12/25 10:25:46;;;;;;;32.92;18.60;;;358.80;1945.60;;;;;;5091441;28;20027;-65
2021/12/25 10:28:14;;;;;;;33.47;24.25;;;358.80;1945.60;;;;;;5094235;28;20032;-68
2021/12/25 10:31:08;;;;;;;25.80;20.58;;;358.80;1945.60;;;;;;5090236;28;20028;-64
2021/12/25 10:33:36;;;;;;;24.00;16.05;;;358.80;1945.60;;;;;;5093927;28;20035;-65
2021/12/25 10:36:31;;;;;;;27.70;18.17;;;358.80;1945.60;;;;;;5091668;28;20056;-68
2021/12/25 10:39:16;;;;;;;27.92;17.60;;;359.00;1971.20;;;;;;5091897;28;20032;-64
2021/12/25 10:41:52;;;;;;;22.40;13.48;;;359.00;1945.60;;;;;;5092826;28;20028;-67
2021/12/25 10:44:20;;;;;;;26.35;15.73;;;359.00;1920.00;;;;;;5095369;28;20482;-60
2021/12/25 10:46:46;;;;;;;29.52;16.83;;;359.00;1894.40;;;;;;5091920;28;20445;-60
2021/12/25 10:49:13;;;;;;;36.25;22.55;;;359.00;1894.40;;;;;;5094641;28;20056;-64
2021/12/25 10:51:39;;;;;;;59.88;36.53;;;359.00;1894.40;;;;;;5094302;28;20035;-60
2021/12/25 10:54:04;;;;;;;42.22;26.15;;;358.90;1894.40;;;;;;5093979;28;20024;-61
2021/12/25 10:56:36;;;;;;;32.40;20.33;;;358.90;1920.00;;;;;;5093252;28;20085;-66
2021/12/25 10:59:09;;;;;;;27.42;16.63;;;358.90;1920.00;;;;;;5092885;28;20027;-63
2021/12/25 11:01:41;;;;;;;25.65;15.85;;;358.90;1920.00;;;;;;5093680;28;20028;-65
2021/12/25 11:04:31;;;;;;;28.67;17.38;;;358.80;1920.00;;;;;;5094299;28;20089;-64
2021/12/25 11:06:59;;;;;;;30.33;18.60;;;358.80;1945.60;;;;;;5094007;28;20122;-67
2021/12/25 11:09:25;;;;;;;32.63;17.67;;;358.80;1945.60;;;;;;5093629;28;20024;-65
2021/12/25 11:12:21;;;;;;;31.33;16.10;;;358.80;1945.60;;;;;;5094300;28;20028;-67
2021/12/25 11:14:48;;;;;;;23.92;14.77;;;358.80;1945.60;;;;;;5093221;28;20040;-62
2021/12/25 11:17:27;;;;;;;25.48;15.70;;;358.80;1945.60;;;;;;5093783;28;20155;-62
2021/12/25 11:20:02;;;;;;;25.23;13.98;;;358.70;1945.60;;;;;;5092656;28;20085;-60
2021/12/25 11:22:50;;;;;;;42.47;24.88;;;358.70;1971.20;;;;;;5093628;28;20024;-60
2021/12/25 11:25:18;;;;;;;187.30;101.53;;;358.70;1971.20;;;;;;5093761;28;20035;-69
2021/12/25 11:27:45;;;;;;;572.97;448.85;;;358.70;1996.80;;;;;;5094121;28;20032;-63
2021/12/25 11:30:11;;;;;;;322.30;220.27;;;358.70;1996.80;;;;;;5093560;28;20023;-64
2021/12/25 11:32:37;;;;;;;109.15;71.80;;;358.70;1971.20;;;;;;5093899;28;20080;-64
2021/12/25 11:35:03;;;;;;;69.28;43.13;;;358.70;1971.20;;;;;;5092723;28;20131;-60
2021/12/25 11:37:29;;;;;;;49.47;30.70;;;358.60;1971.20;;;;;;5094646;28;20077;-65
2021/12/25 11:39:55;;;;;;;61.45;36.33;;;358.60;1971.20;;;;;;5094285;28;20373;-64
2021/12/25 11:42:26;;;;;;;64.88;39.50;;;358.60;1996.80;;;;;;5091492;28;20024;-62
2021/12/25 11:44:53;;;;;;;55.00;36.00;;;358.50;1996.80;;;;;;5087864;28;20024;-60
2021/12/25 11:47:29;;;;;;;47.30;29.45;;;358.50;1996.80;;;;;;5093456;28;20020;-62
2021/12/25 11:49:58;;;;;;;36.00;23.10;;;358.40;1996.80;;;;;;5092181;28;20059;-61
2021/12/25 11:52:29;;;;;;;30.50;19.55;;;358.40;1996.80;;;;;;5092250;28;20111;-65
2021/12/25 11:55:16;;;;;;;30.70;18.70;;;358.40;2022.40;;;;;;5092971;28;20024;-60
2021/12/25 11:57:57;;;;;;;37.40;22.90;;;358.40;2022.40;;;;;;5093057;28;20032;-64
2021/12/25 12:00:43;;;;;;;40.28;23.88;;;333.70;2048.00;;;;;;5092032;28;20024;-60
2021/12/25 12:03:09;;;;;;;46.83;30.35;;;333.70;2022.40;;;;;;5091869;28;20052;-60
2021/12/25 12:05:37;;;;;;;52.97;30.92;;;333.70;2073.60;;;;;;5093264;28;20070;-60
2021/12/25 12:08:09;;;;;;;48.75;31.52;;;333.60;2048.00;;;;;;5093193;28;20048;-65
2021/12/25 12:10:46;;;;;;;43.30;27.65;;;333.60;2048.00;;;;;;5093721;28;20066;-60
2021/12/25 12:13:21;;;;;;;49.95;32.55;;;333.60;2048.00;;;;;;5091811;28;20554;-65
2021/12/25 12:15:51;;;;;;;57.67;39.22;;;333.60;2048.00;;;;;;5093115;28;20024;-61
2021/12/25 12:18:26;;;;;;;77.18;49.05;;;333.60;2073.60;;;;;;5091790;28;20028;-63
2021/12/25 12:21:04;;;;;;;78.38;52.00;;;333.60;2048.00;;;;;;5092750;28;20093;-59
2021/12/25 12:26:53;;;;;;;58.42;38.70;;;333.60;2048.00;;;;;;5092745;28;20638;-66
2021/12/25 12:29:42;;;;;;;51.90;31.52;;;333.70;2073.60;;;;;;5070623;28;20055;-60
2021/12/25 12:32:44;;;;;;;44.25;27.52;;;333.60;2048.00;;;;;;5053232;28;20435;-60
2021/12/25 12:35:30;;;;;;;44.10;26.40;;;333.60;2048.00;;;;;;5070247;28;20112;-60
2021/12/25 12:38:25;;;;;;;48.47;29.13;;;333.60;2048.00;;;;;;5069575;28;20040;-59
2021/12/25 12:41:27;;;;;;;52.33;27.45;;;333.70;2048.00;;;;;;5070598;28;20017;-59
2021/12/25 12:43:53;;;;;;;58.78;30.38;;;333.70;2073.60;;;;;;5069881;28;20061;-64
2021/12/25 12:46:19;;;;;;;72.20;37.83;;;333.70;2048.00;;;;;;5070220;28;20110;-67
2021/12/25 12:49:07;;;;;;;63.13;36.53;;;358.40;2048.00;;;;;;5070246;28;20044;-60
2021/12/25 12:51:36;;;;;;;54.85;32.58;;;358.40;2048.00;;;;;;5057581;28;20047;-59
2021/12/25 12:54:03;;;;;;;46.03;31.15;;;358.40;2073.60;;;;;;5074199;28;20032;-59
2021/12/25 12:56:30;;;;;;;38.15;25.15;;;358.40;2048.00;;;;;;5073678;28;20039;-63
2021/12/25 12:58:57;;;;;;;38.17;21.48;;;358.40;2048.00;;;;;;5073578;28;20085;-65
2021/12/25 13:01:27;;;;;;;29.45;16.85;;;358.50;2048.00;;;;;;5057122;28;20044;-60
2021/12/25 13:04:03;;;;;;;25.63;14.65;;;358.40;2048.00;;;;;;5084145;28;20047;-65
2021/12/25 13:06:30;;;;;;;26.17;15.73;;;358.50;2048.00;;;;;;5096678;28;20036;-59
2021/12/25 13:09:04;;;;;;;29.85;18.33;;;358.60;2022.40;;;;;;5096294;28;20020;-59
2021/12/25 13:11:38;;;;;;;37.45;24.70;;;358.60;2022.40;;;;;;5096624;28;20031;-60
2021/12/25 13:14:05;;;;;;;45.63;26.73;;;358.60;2022.40;;;;;;5096417;28;20073;-60
2021/12/25 13:16:39;;;;;;;43.15;25.42;;;358.70;2022.40;;;;;;5096278;28;20032;-62
2021/12/25 13:19:05;;;;;;;34.65;21.90;;;358.70;2022.40;;;;;;5095700;28;20024;-65
2021/12/25 13:21:34;;;;;;;29.35;17.90;;;358.70;2022.40;;;;;;5096062;28;20032;-65
2021/12/25 13:24:13;;;;;;;26.77;16.63;;;358.70;2022.40;;;;;;5096179;28;20462;-59
2021/12/25 13:26:47;;;;;;;70.47;47.45;;;358.80;2022.40;;;;;;5095814;28;20051;-59
2021/12/25 13:29:23;;;;;;;86.67;49.77;;;358.70;2022.40;;;;;;5077786;28;20016;-65
2021/12/25 13:31:50;;;;;;;142.00;85.82;;;358.70;2022.40;;;;;;5075914;28;20096;-60
2021/12/25 13:34:20;;;;;;;263.33;137.75;;;358.70;2048.00;;;;;;5075420;28;20038;-60